Deinum, Netherlands
Current Conditions -  °F | °C
As of 2:05 PM on Tuesday 21 Oct 2014 (Local Time) from EHLW Reporting Station
Light Rain Light Rain  
Wind Chill: 55°   Ceiling: 1100
Heat Index: 55°   Visibility: 6mi
Dew Point: 54°   Wind: 20mph
Humidity: 94%   Direction: 200°SSW
Pressure: 29.32"   Gusts: NA
Location:  53.19°N, 5.72°E
Report Text: EHLW 211205Z AUTO 20017KT 9999 -RA FEW008 SCT009 BKN011 13/12 Q0993 RERA REDZ GRN 21020G35KT 9999 FEW008 SCT010 BKN012 BECMG 27022G38KT SCT020 BKN040
Loading
Personal Weather Stations






























Interactive Weather Map
Tropical Storm Tracking
New forecast layout! Learn more

10-Day Weather Forecast

Advertisements
Track Severe Weather on mobile